N624JX KPDX-KSJC
Flight info
| Callsign | N624JX |
|---|---|
| Flight time | 1h 19m |
| Altitude | 45000 |
| Route | MINNE5 HISKU Q5 HUPTU CHBLI BRIXX4 |
| Aircraft | C750/M-SBDE3FGHRWXY/S |
Departure
| Time | 2026-05-07 20:59 |
|---|---|
| Airport | Portland International Airport (KPDX) |
Arrival
| Time | 2026-05-07 22:18 |
|---|---|
| Airport | Norman Y. Mineta San Jose International Airport (KSJC) |
| Time | Latitude | Longitude | Altitude | Speed | Heading |
|---|---|---|---|---|---|
| 2026-05-07 20:43 | 45.58562 | -122.57941 | 28 ft | 0 kts | 120° |
| 2026-05-07 20:54 | 45.58558 | -122.57930 | 28 ft | 4 kts | 120° |
| 2026-05-07 20:54 | 45.58557 | -122.57894 | 28 ft | 3 kts | 47° |
| 2026-05-07 20:54 | 45.58582 | -122.57874 | 28 ft | 6 kts | 23° |
| 2026-05-07 20:55 | 45.58636 | -122.57861 | 28 ft | 9 kts | 28° |
| 2026-05-07 20:55 | 45.58670 | -122.57807 | 29 ft | 9 kts | 97° |
| 2026-05-07 20:55 | 45.58631 | -122.57703 | 28 ft | 13 kts | 119° |
| 2026-05-07 20:55 | 45.58589 | -122.57595 | 28 ft | 12 kts | 119° |
| 2026-05-07 20:56 | 45.58544 | -122.57480 | 28 ft | 13 kts | 119° |
| 2026-05-07 20:56 | 45.58499 | -122.57365 | 27 ft | 13 kts | 119° |
| 2026-05-07 20:56 | 45.58456 | -122.57255 | 28 ft | 12 kts | 119° |
| 2026-05-07 20:56 | 45.58415 | -122.57151 | 28 ft | 12 kts | 119° |
| 2026-05-07 20:57 | 45.58373 | -122.57044 | 28 ft | 12 kts | 119° |
| 2026-05-07 20:57 | 45.58334 | -122.56943 | 28 ft | 11 kts | 119° |
| 2026-05-07 20:57 | 45.58297 | -122.56849 | 28 ft | 11 kts | 119° |
| 2026-05-07 20:57 | 45.58269 | -122.56758 | 28 ft | 9 kts | 89° |
| 2026-05-07 20:58 | 45.58315 | -122.56696 | 27 ft | 10 kts | 17° |
| 2026-05-07 20:58 | 45.58372 | -122.56719 | 27 ft | 8 kts | 318° |
| 2026-05-07 20:58 | 45.58409 | -122.56810 | 27 ft | 24 kts | 299° |
| 2026-05-07 20:58 | 45.58684 | -122.57518 | 29 ft | 133 kts | 299° |
| 2026-05-07 20:59 | 45.59181 | -122.58801 | 456 ft | 152 kts | 300° |
| 2026-05-07 20:59 | 45.59665 | -122.60165 | 1329 ft | 156 kts | 296° |
| 2026-05-07 20:59 | 45.60171 | -122.61609 | 2030 ft | 168 kts | 297° |
| 2026-05-07 20:59 | 45.60731 | -122.63148 | 2735 ft | 182 kts | 297° |
| 2026-05-07 21:00 | 45.61352 | -122.64845 | 3432 ft | 203 kts | 297° |
| 2026-05-07 21:00 | 45.61868 | -122.66841 | 4093 ft | 226 kts | 284° |
| 2026-05-07 21:00 | 45.62412 | -122.69066 | 4785 ft | 249 kts | 295° |
| 2026-05-07 21:00 | 45.63317 | -122.71282 | 5600 ft | 262 kts | 302° |
| 2026-05-07 21:01 | 45.64304 | -122.73476 | 6692 ft | 265 kts | 301° |
| 2026-05-07 21:01 | 45.65236 | -122.75779 | 7694 ft | 269 kts | 299° |
| 2026-05-07 21:01 | 45.66156 | -122.78123 | 8844 ft | 271 kts | 299° |
| 2026-05-07 21:01 | 45.66953 | -122.80584 | 9815 ft | 278 kts | 284° |
| 2026-05-07 21:02 | 45.66981 | -122.83379 | 10490 ft | 292 kts | 262° |
| 2026-05-07 21:02 | 45.66403 | -122.86261 | 10951 ft | 311 kts | 253° |
| 2026-05-07 21:02 | 45.65423 | -122.89095 | 11361 ft | 331 kts | 234° |
| 2026-05-07 21:02 | 45.63640 | -122.91303 | 11787 ft | 352 kts | 213° |
| 2026-05-07 21:03 | 45.61252 | -122.92382 | 12215 ft | 370 kts | 191° |
| 2026-05-07 21:03 | 45.58656 | -122.92716 | 12893 ft | 377 kts | 186° |
| 2026-05-07 21:03 | 45.56026 | -122.92921 | 13618 ft | 381 kts | 186° |
| 2026-05-07 21:03 | 45.53372 | -122.93212 | 14268 ft | 384 kts | 188° |
| 2026-05-07 21:04 | 45.50699 | -122.93576 | 14880 ft | 388 kts | 188° |
| 2026-05-07 21:04 | 45.47995 | -122.93906 | 15504 ft | 392 kts | 187° |
| 2026-05-07 21:04 | 45.45262 | -122.94198 | 16143 ft | 396 kts | 187° |
| 2026-05-07 21:04 | 45.42505 | -122.94509 | 16794 ft | 400 kts | 187° |
| 2026-05-07 21:05 | 45.39720 | -122.94846 | 17449 ft | 404 kts | 188° |
| 2026-05-07 21:05 | 45.36903 | -122.95182 | 18141 ft | 408 kts | 187° |
| 2026-05-07 21:05 | 45.34094 | -122.95502 | 18776 ft | 412 kts | 187° |
| 2026-05-07 21:05 | 45.31221 | -122.95830 | 19399 ft | 416 kts | 187° |
| 2026-05-07 21:06 | 45.28323 | -122.96169 | 20032 ft | 420 kts | 187° |
| 2026-05-07 21:06 | 45.25400 | -122.96511 | 20681 ft | 424 kts | 187° |
| 2026-05-07 21:06 | 45.22442 | -122.96839 | 21311 ft | 428 kts | 186° |
| 2026-05-07 21:06 | 45.19438 | -122.96803 | 21892 ft | 434 kts | 181° |
| 2026-05-07 21:07 | 45.16407 | -122.96664 | 22536 ft | 438 kts | 181° |
| 2026-05-07 21:07 | 45.13348 | -122.96558 | 23161 ft | 442 kts | 181° |
| 2026-05-07 21:07 | 45.10256 | -122.96473 | 23785 ft | 446 kts | 182° |
| 2026-05-07 21:07 | 45.07141 | -122.96370 | 24322 ft | 450 kts | 181° |
| 2026-05-07 21:08 | 45.03999 | -122.96251 | 24867 ft | 453 kts | 181° |
| 2026-05-07 21:08 | 45.00833 | -122.96138 | 25397 ft | 457 kts | 181° |
| 2026-05-07 21:08 | 44.97643 | -122.96035 | 25909 ft | 460 kts | 181° |
| 2026-05-07 21:08 | 44.94430 | -122.95929 | 26410 ft | 464 kts | 181° |
| 2026-05-07 21:09 | 44.91192 | -122.95815 | 26909 ft | 468 kts | 181° |
| 2026-05-07 21:09 | 44.87927 | -122.95701 | 27428 ft | 471 kts | 181° |
| 2026-05-07 21:09 | 44.84641 | -122.95590 | 27940 ft | 474 kts | 181° |
| 2026-05-07 21:09 | 44.81333 | -122.95479 | 28489 ft | 477 kts | 181° |
| 2026-05-07 21:10 | 44.78007 | -122.95366 | 28969 ft | 480 kts | 181° |
| 2026-05-07 21:10 | 44.74655 | -122.95251 | 29446 ft | 483 kts | 181° |
| 2026-05-07 21:10 | 44.71278 | -122.95136 | 29874 ft | 488 kts | 181° |
| 2026-05-07 21:10 | 44.67872 | -122.95022 | 30310 ft | 491 kts | 181° |
| 2026-05-07 21:11 | 44.64448 | -122.94905 | 30705 ft | 494 kts | 181° |
| 2026-05-07 21:11 | 44.60998 | -122.94787 | 31228 ft | 494 kts | 181° |
| 2026-05-07 21:11 | 44.54159 | -122.94556 | 32439 ft | 490 kts | 182° |
| 2026-05-07 21:12 | 44.50748 | -122.94442 | 33016 ft | 489 kts | 182° |
| 2026-05-07 21:12 | 44.47341 | -122.94329 | 33585 ft | 489 kts | 182° |
| 2026-05-07 21:12 | 44.43943 | -122.94226 | 34205 ft | 487 kts | 182° |
| 2026-05-07 21:12 | 44.40560 | -122.94127 | 34747 ft | 486 kts | 182° |
| 2026-05-07 21:13 | 44.37187 | -122.94023 | 35321 ft | 484 kts | 182° |
| 2026-05-07 21:13 | 44.33827 | -122.93916 | 35889 ft | 482 kts | 182° |
| 2026-05-07 21:13 | 44.30477 | -122.93812 | 36490 ft | 480 kts | 182° |
| 2026-05-07 21:13 | 44.27139 | -122.93712 | 37071 ft | 479 kts | 182° |
| 2026-05-07 21:14 | 44.23855 | -122.93613 | 37639 ft | 478 kts | 182° |
| 2026-05-07 21:14 | 44.20495 | -122.93508 | 38230 ft | 476 kts | 182° |
| 2026-05-07 21:14 | 44.17190 | -122.93406 | 38806 ft | 474 kts | 182° |
| 2026-05-07 21:14 | 44.13886 | -122.93306 | 39269 ft | 473 kts | 182° |
| 2026-05-07 21:15 | 44.10604 | -122.93206 | 39752 ft | 471 kts | 182° |
| 2026-05-07 21:15 | 44.07330 | -122.93106 | 40203 ft | 471 kts | 182° |
| 2026-05-07 21:15 | 44.04053 | -122.93007 | 40588 ft | 471 kts | 182° |
| 2026-05-07 21:15 | 44.00773 | -122.92907 | 40997 ft | 471 kts | 182° |
| 2026-05-07 21:16 | 43.97536 | -122.92808 | 41414 ft | 471 kts | 182° |
| 2026-05-07 21:16 | 43.94259 | -122.92708 | 41828 ft | 471 kts | 182° |
| 2026-05-07 21:16 | 43.90984 | -122.92609 | 42234 ft | 471 kts | 182° |
| 2026-05-07 21:16 | 43.87708 | -122.92510 | 42638 ft | 471 kts | 182° |
| 2026-05-07 21:17 | 43.84436 | -122.92411 | 43048 ft | 470 kts | 182° |
| 2026-05-07 21:17 | 43.81163 | -122.92312 | 43439 ft | 470 kts | 182° |
| 2026-05-07 21:17 | 43.77892 | -122.92213 | 43824 ft | 470 kts | 181° |
| 2026-05-07 21:17 | 43.74630 | -122.92114 | 44258 ft | 469 kts | 181° |
| 2026-05-07 21:18 | 43.71368 | -122.92016 | 44617 ft | 469 kts | 181° |
| 2026-05-07 21:18 | 43.68111 | -122.91919 | 44959 ft | 469 kts | 181° |
| 2026-05-07 21:18 | 43.64846 | -122.91821 | 45143 ft | 471 kts | 181° |
| 2026-05-07 21:18 | 43.61548 | -122.91723 | 45143 ft | 478 kts | 181° |
| 2026-05-07 21:19 | 43.55909 | -122.91554 | 45151 ft | 489 kts | 181° |
| 2026-05-07 21:19 | 43.49024 | -122.91347 | 45155 ft | 501 kts | 181° |
| 2026-05-07 21:20 | 43.42021 | -122.91138 | 45154 ft | 512 kts | 181° |
| 2026-05-07 21:20 | 43.34842 | -122.90923 | 45141 ft | 519 kts | 181° |
| 2026-05-07 21:21 | 43.27624 | -122.90707 | 45141 ft | 519 kts | 181° |
| 2026-05-07 21:21 | 43.20402 | -122.90494 | 45120 ft | 519 kts | 181° |
| 2026-05-07 21:22 | 43.13172 | -122.90280 | 45117 ft | 519 kts | 181° |
| 2026-05-07 21:22 | 43.05947 | -122.90066 | 45113 ft | 519 kts | 181° |
| 2026-05-07 21:23 | 42.98730 | -122.89854 | 45108 ft | 519 kts | 181° |
| 2026-05-07 21:23 | 42.91512 | -122.89642 | 45102 ft | 519 kts | 181° |
| 2026-05-07 21:24 | 42.84289 | -122.89430 | 45093 ft | 519 kts | 181° |
| 2026-05-07 21:24 | 42.77121 | -122.89221 | 45082 ft | 518 kts | 180° |
| 2026-05-07 21:25 | 42.69899 | -122.89010 | 45079 ft | 519 kts | 180° |
| 2026-05-07 21:25 | 42.62685 | -122.88800 | 45071 ft | 519 kts | 180° |
| 2026-05-07 21:26 | 42.55466 | -122.88591 | 45068 ft | 519 kts | 180° |
| 2026-05-07 21:26 | 42.48248 | -122.88381 | 45068 ft | 519 kts | 180° |
| 2026-05-07 21:27 | 42.41030 | -122.88174 | 45068 ft | 519 kts | 180° |
| 2026-05-07 21:27 | 42.33804 | -122.87967 | 45067 ft | 519 kts | 180° |
| 2026-05-07 21:28 | 42.26579 | -122.87759 | 45072 ft | 519 kts | 180° |
| 2026-05-07 21:28 | 42.19351 | -122.87553 | 45077 ft | 519 kts | 180° |
| 2026-05-07 21:29 | 42.12119 | -122.87347 | 45072 ft | 519 kts | 180° |
| 2026-05-07 21:29 | 42.04895 | -122.87142 | 45077 ft | 519 kts | 180° |
| 2026-05-07 21:30 | 41.97667 | -122.86936 | 45079 ft | 520 kts | 180° |
| 2026-05-07 21:30 | 41.90437 | -122.86732 | 45076 ft | 520 kts | 180° |
| 2026-05-07 21:31 | 41.83205 | -122.86528 | 45078 ft | 520 kts | 180° |
| 2026-05-07 21:31 | 41.75975 | -122.86324 | 45080 ft | 520 kts | 180° |
| 2026-05-07 21:32 | 41.68742 | -122.86121 | 45078 ft | 520 kts | 180° |
| 2026-05-07 21:32 | 41.61512 | -122.85918 | 45083 ft | 520 kts | 180° |
| 2026-05-07 21:33 | 41.54327 | -122.85716 | 45081 ft | 520 kts | 180° |
| 2026-05-07 21:33 | 41.47092 | -122.85515 | 45090 ft | 520 kts | 180° |
| 2026-05-07 21:34 | 41.39858 | -122.85313 | 45102 ft | 520 kts | 180° |
| 2026-05-07 21:34 | 41.32626 | -122.85083 | 45111 ft | 520 kts | 179° |
| 2026-05-07 21:35 | 41.25393 | -122.84640 | 45126 ft | 520 kts | 179° |
| 2026-05-07 21:35 | 41.18159 | -122.84221 | 45130 ft | 520 kts | 179° |
| 2026-05-07 21:36 | 41.10926 | -122.83778 | 45117 ft | 520 kts | 179° |
| 2026-05-07 21:36 | 41.03700 | -122.83357 | 45112 ft | 520 kts | 179° |
| 2026-05-07 21:37 | 40.96458 | -122.82920 | 45105 ft | 521 kts | 179° |
| 2026-05-07 21:37 | 40.89223 | -122.82495 | 45105 ft | 520 kts | 179° |
| 2026-05-07 21:38 | 40.81993 | -122.82065 | 45088 ft | 520 kts | 179° |
| 2026-05-07 21:38 | 40.74768 | -122.81640 | 45091 ft | 520 kts | 179° |
| 2026-05-07 21:39 | 40.67543 | -122.81214 | 45081 ft | 520 kts | 179° |
| 2026-05-07 21:39 | 40.60319 | -122.80789 | 45075 ft | 520 kts | 179° |
| 2026-05-07 21:40 | 40.53097 | -122.80366 | 45072 ft | 519 kts | 179° |
| 2026-05-07 21:40 | 40.45924 | -122.79945 | 45083 ft | 519 kts | 179° |
| 2026-05-07 21:41 | 40.38705 | -122.79524 | 45092 ft | 519 kts | 179° |
| 2026-05-07 21:41 | 40.31440 | -122.79101 | 45092 ft | 519 kts | 179° |
| 2026-05-07 21:42 | 40.24273 | -122.78684 | 45095 ft | 519 kts | 179° |
| 2026-05-07 21:42 | 40.17062 | -122.78266 | 45090 ft | 519 kts | 179° |
| 2026-05-07 21:43 | 40.09846 | -122.77847 | 45086 ft | 519 kts | 179° |
| 2026-05-07 21:43 | 40.02638 | -122.77432 | 45078 ft | 518 kts | 179° |
| 2026-05-07 21:44 | 39.95431 | -122.77016 | 45080 ft | 518 kts | 179° |
| 2026-05-07 21:44 | 39.88226 | -122.76601 | 45079 ft | 518 kts | 179° |
| 2026-05-07 21:45 | 39.81019 | -122.76187 | 45073 ft | 518 kts | 179° |
| 2026-05-07 21:45 | 39.73813 | -122.75774 | 45073 ft | 519 kts | 179° |
| 2026-05-07 21:46 | 39.66609 | -122.75363 | 45075 ft | 518 kts | 179° |
| 2026-05-07 21:46 | 39.59408 | -122.74952 | 45074 ft | 518 kts | 179° |
| 2026-05-07 21:47 | 39.52199 | -122.74541 | 45068 ft | 519 kts | 179° |
| 2026-05-07 21:47 | 39.45039 | -122.73377 | 45068 ft | 520 kts | 171° |
| 2026-05-07 21:48 | 39.37927 | -122.71690 | 45067 ft | 519 kts | 172° |
| 2026-05-07 21:48 | 39.30784 | -122.70187 | 45072 ft | 519 kts | 172° |
| 2026-05-07 21:49 | 39.27234 | -122.69375 | 44422 ft | 519 kts | 171° |
| 2026-05-07 21:49 | 39.23699 | -122.68569 | 43749 ft | 514 kts | 172° |
| 2026-05-07 21:49 | 39.20180 | -122.67804 | 43071 ft | 512 kts | 172° |
| 2026-05-07 21:49 | 39.16666 | -122.67049 | 42404 ft | 512 kts | 172° |
| 2026-05-07 21:50 | 39.13159 | -122.66274 | 41728 ft | 512 kts | 171° |
| 2026-05-07 21:50 | 39.09649 | -122.65489 | 41063 ft | 511 kts | 171° |
| 2026-05-07 21:50 | 39.06146 | -122.64718 | 40389 ft | 511 kts | 171° |
| 2026-05-07 21:50 | 39.02642 | -122.63958 | 39720 ft | 510 kts | 172° |
| 2026-05-07 21:51 | 38.99145 | -122.63193 | 39052 ft | 509 kts | 171° |
| 2026-05-07 21:51 | 38.95653 | -122.62423 | 38327 ft | 508 kts | 171° |
| 2026-05-07 21:51 | 38.92160 | -122.61657 | 37660 ft | 512 kts | 171° |
| 2026-05-07 21:51 | 38.88635 | -122.60889 | 36981 ft | 516 kts | 171° |
| 2026-05-07 21:52 | 38.85086 | -122.60116 | 36308 ft | 518 kts | 171° |
| 2026-05-07 21:52 | 38.81527 | -122.59337 | 35622 ft | 520 kts | 171° |
| 2026-05-07 21:52 | 38.77947 | -122.58555 | 34944 ft | 523 kts | 172° |
| 2026-05-07 21:52 | 38.74355 | -122.57775 | 34251 ft | 525 kts | 172° |
| 2026-05-07 21:53 | 38.70740 | -122.56989 | 33560 ft | 529 kts | 172° |
| 2026-05-07 21:53 | 38.67141 | -122.56206 | 32868 ft | 522 kts | 172° |
| 2026-05-07 21:53 | 38.63580 | -122.55432 | 32194 ft | 516 kts | 172° |
| 2026-05-07 21:53 | 38.60055 | -122.54668 | 31516 ft | 511 kts | 172° |
| 2026-05-07 21:54 | 38.56558 | -122.53948 | 30843 ft | 507 kts | 173° |
| 2026-05-07 21:54 | 38.53065 | -122.53711 | 30184 ft | 501 kts | 180° |
| 2026-05-07 21:54 | 38.49643 | -122.53640 | 29504 ft | 495 kts | 180° |
| 2026-05-07 21:54 | 38.46207 | -122.53567 | 28852 ft | 491 kts | 180° |
| 2026-05-07 21:55 | 38.42810 | -122.53429 | 28209 ft | 486 kts | 179° |
| 2026-05-07 21:55 | 38.39444 | -122.53283 | 27574 ft | 481 kts | 179° |
| 2026-05-07 21:55 | 38.36105 | -122.53181 | 26937 ft | 478 kts | 180° |
| 2026-05-07 21:55 | 38.32800 | -122.53092 | 26310 ft | 472 kts | 180° |
| 2026-05-07 21:56 | 38.29615 | -122.52980 | 25706 ft | 444 kts | 179° |
| 2026-05-07 21:56 | 38.26616 | -122.52864 | 25138 ft | 419 kts | 179° |
| 2026-05-07 21:56 | 38.23745 | -122.52770 | 24598 ft | 408 kts | 180° |
| 2026-05-07 21:56 | 38.20927 | -122.52686 | 24066 ft | 403 kts | 179° |
| 2026-05-07 21:57 | 38.18133 | -122.52593 | 23509 ft | 400 kts | 179° |
| 2026-05-07 21:57 | 38.15363 | -122.52494 | 22968 ft | 397 kts | 179° |
| 2026-05-07 21:57 | 38.12612 | -122.52402 | 22447 ft | 394 kts | 179° |
| 2026-05-07 21:57 | 38.09879 | -122.52314 | 21929 ft | 391 kts | 179° |
| 2026-05-07 21:58 | 38.07168 | -122.52224 | 21416 ft | 389 kts | 179° |
| 2026-05-07 21:58 | 38.04477 | -122.52009 | 20903 ft | 386 kts | 176° |
| 2026-05-07 21:58 | 38.01806 | -122.51812 | 20401 ft | 383 kts | 178° |
| 2026-05-07 21:58 | 37.99152 | -122.51683 | 19900 ft | 381 kts | 179° |
| 2026-05-07 21:59 | 37.96514 | -122.51496 | 19423 ft | 378 kts | 177° |
| 2026-05-07 21:59 | 37.93901 | -122.51268 | 18935 ft | 376 kts | 177° |
| 2026-05-07 21:59 | 37.91301 | -122.51067 | 18432 ft | 373 kts | 177° |
| 2026-05-07 21:59 | 37.88723 | -122.50892 | 17834 ft | 371 kts | 178° |
| 2026-05-07 22:00 | 37.86165 | -122.50709 | 17276 ft | 365 kts | 178° |
| 2026-05-07 22:00 | 37.83642 | -122.50514 | 16809 ft | 362 kts | 178° |
| 2026-05-07 22:00 | 37.81137 | -122.50326 | 16333 ft | 359 kts | 178° |
| 2026-05-07 22:00 | 37.78654 | -122.50145 | 15862 ft | 356 kts | 178° |
| 2026-05-07 22:01 | 37.76194 | -122.49965 | 15396 ft | 353 kts | 178° |
| 2026-05-07 22:01 | 37.73781 | -122.49472 | 14891 ft | 354 kts | 163° |
| 2026-05-07 22:01 | 37.71646 | -122.47953 | 14436 ft | 354 kts | 144° |
| 2026-05-07 22:01 | 37.69752 | -122.45960 | 14009 ft | 353 kts | 141° |
| 2026-05-07 22:02 | 37.67922 | -122.43959 | 13516 ft | 339 kts | 141° |
| 2026-05-07 22:02 | 37.66172 | -122.42086 | 13072 ft | 321 kts | 142° |
| 2026-05-07 22:02 | 37.64485 | -122.40317 | 12652 ft | 312 kts | 143° |
| 2026-05-07 22:02 | 37.62853 | -122.38596 | 12247 ft | 307 kts | 142° |
| 2026-05-07 22:03 | 37.61098 | -122.37086 | 11960 ft | 295 kts | 158° |
| 2026-05-07 22:03 | 37.59182 | -122.36081 | 11919 ft | 300 kts | 160° |
| 2026-05-07 22:03 | 37.57261 | -122.35072 | 11707 ft | 299 kts | 159° |
| 2026-05-07 22:03 | 37.55348 | -122.34053 | 11455 ft | 298 kts | 159° |
| 2026-05-07 22:04 | 37.53435 | -122.33040 | 11223 ft | 297 kts | 159° |
| 2026-05-07 22:04 | 37.51531 | -122.32039 | 10958 ft | 296 kts | 160° |
| 2026-05-07 22:04 | 37.49650 | -122.31048 | 10702 ft | 283 kts | 160° |
| 2026-05-07 22:04 | 37.47944 | -122.30143 | 10449 ft | 258 kts | 160° |
| 2026-05-07 22:05 | 37.46331 | -122.29295 | 10215 ft | 248 kts | 160° |
| 2026-05-07 22:05 | 37.44753 | -122.28470 | 9998 ft | 244 kts | 161° |
| 2026-05-07 22:05 | 37.43193 | -122.27649 | 9781 ft | 243 kts | 160° |
| 2026-05-07 22:05 | 37.41689 | -122.26855 | 9561 ft | 224 kts | 161° |
| 2026-05-07 22:06 | 37.40301 | -122.26123 | 9362 ft | 211 kts | 161° |
| 2026-05-07 22:06 | 37.38955 | -122.25420 | 9177 ft | 208 kts | 161° |
| 2026-05-07 22:06 | 37.38076 | -122.24959 | 9063 ft | 206 kts | 161° |
| 2026-05-07 22:06 | 37.36752 | -122.24265 | 8876 ft | 206 kts | 161° |
| 2026-05-07 22:07 | 37.35425 | -122.23569 | 8711 ft | 206 kts | 161° |
| 2026-05-07 22:07 | 37.34098 | -122.22872 | 8540 ft | 206 kts | 161° |
| 2026-05-07 22:07 | 37.32772 | -122.22177 | 8354 ft | 206 kts | 161° |
| 2026-05-07 22:07 | 37.31451 | -122.21484 | 8167 ft | 206 kts | 160° |
| 2026-05-07 22:08 | 37.30133 | -122.20793 | 7984 ft | 205 kts | 161° |
| 2026-05-07 22:08 | 37.28843 | -122.20029 | 7790 ft | 205 kts | 155° |
| 2026-05-07 22:08 | 37.27560 | -122.19232 | 7623 ft | 206 kts | 158° |
| 2026-05-07 22:08 | 37.26273 | -122.18467 | 7462 ft | 202 kts | 158° |
| 2026-05-07 22:09 | 37.25038 | -122.17709 | 7263 ft | 195 kts | 157° |
| 2026-05-07 22:09 | 37.23841 | -122.16934 | 7079 ft | 194 kts | 152° |
| 2026-05-07 22:09 | 37.23000 | -122.15635 | 6988 ft | 193 kts | 117° |
| 2026-05-07 22:09 | 37.22572 | -122.13984 | 7011 ft | 196 kts | 109° |
| 2026-05-07 22:10 | 37.22187 | -122.12319 | 6999 ft | 202 kts | 108° |
| 2026-05-07 22:10 | 37.21784 | -122.10614 | 6753 ft | 205 kts | 109° |
| 2026-05-07 22:10 | 37.21385 | -122.08934 | 6475 ft | 203 kts | 109° |
| 2026-05-07 22:10 | 37.20972 | -122.07201 | 6202 ft | 212 kts | 108° |
| 2026-05-07 22:11 | 37.20553 | -122.05438 | 5896 ft | 208 kts | 107° |
| 2026-05-07 22:11 | 37.20144 | -122.03711 | 5618 ft | 206 kts | 107° |
| 2026-05-07 22:11 | 37.19737 | -122.02002 | 5346 ft | 205 kts | 108° |
| 2026-05-07 22:11 | 37.19514 | -122.00237 | 5039 ft | 207 kts | 88° |
| 2026-05-07 22:12 | 37.19836 | -121.98483 | 4765 ft | 204 kts | 66° |
| 2026-05-07 22:12 | 37.20464 | -121.96916 | 4523 ft | 200 kts | 62° |
| 2026-05-07 22:12 | 37.21084 | -121.95358 | 4249 ft | 199 kts | 63° |
| 2026-05-07 22:12 | 37.21687 | -121.93825 | 3976 ft | 198 kts | 63° |
| 2026-05-07 22:13 | 37.22293 | -121.92290 | 3716 ft | 195 kts | 63° |
| 2026-05-07 22:13 | 37.22888 | -121.90786 | 3453 ft | 187 kts | 63° |
| 2026-05-07 22:13 | 37.23464 | -121.89328 | 3184 ft | 183 kts | 63° |
| 2026-05-07 22:13 | 37.24024 | -121.87909 | 2945 ft | 181 kts | 63° |
| 2026-05-07 22:14 | 37.24624 | -121.86520 | 2693 ft | 180 kts | 55° |
| 2026-05-07 22:14 | 37.25503 | -121.85484 | 2457 ft | 168 kts | 33° |
| 2026-05-07 22:14 | 37.26535 | -121.84904 | 2234 ft | 159 kts | 14° |
| 2026-05-07 22:14 | 37.27602 | -121.84760 | 2041 ft | 150 kts | 357° |
| 2026-05-07 22:15 | 37.28585 | -121.84999 | 1838 ft | 140 kts | 341° |
| 2026-05-07 22:15 | 37.29431 | -121.85537 | 1672 ft | 135 kts | 326° |
| 2026-05-07 22:15 | 37.30141 | -121.86294 | 1479 ft | 132 kts | 319° |
| 2026-05-07 22:15 | 37.30832 | -121.87041 | 1305 ft | 130 kts | 320° |
| 2026-05-07 22:16 | 37.31506 | -121.87774 | 1136 ft | 127 kts | 319° |
| 2026-05-07 22:16 | 37.32171 | -121.88498 | 958 ft | 125 kts | 320° |
| 2026-05-07 22:16 | 37.32817 | -121.89204 | 797 ft | 121 kts | 320° |
| 2026-05-07 22:16 | 37.33440 | -121.89886 | 646 ft | 117 kts | 319° |
| 2026-05-07 22:17 | 37.34047 | -121.90549 | 502 ft | 114 kts | 320° |
| 2026-05-07 22:17 | 37.34640 | -121.91193 | 356 ft | 113 kts | 318° |
| 2026-05-07 22:17 | 37.35224 | -121.91846 | 216 ft | 112 kts | 319° |
| 2026-05-07 22:17 | 37.35815 | -121.92491 | 66 ft | 112 kts | 319° |
| 2026-05-07 22:18 | 37.36313 | -121.93037 | 55 ft | 67 kts | 319° |
| 2026-05-07 22:18 | 37.36670 | -121.93435 | 57 ft | 14 kts | 307° |
| 2026-05-07 22:18 | 37.36663 | -121.93542 | 59 ft | 13 kts | 224° |
| 2026-05-07 22:19 | 37.36587 | -121.93521 | 58 ft | 12 kts | 139° |
| 2026-05-07 22:19 | 37.36521 | -121.93448 | 58 ft | 14 kts | 139° |
| 2026-05-07 22:19 | 37.36447 | -121.93368 | 58 ft | 16 kts | 139° |
| 2026-05-07 22:19 | 37.36364 | -121.93277 | 54 ft | 16 kts | 139° |
| 2026-05-07 22:20 | 37.36283 | -121.93188 | 56 ft | 15 kts | 139° |
| 2026-05-07 22:20 | 37.36203 | -121.93100 | 55 ft | 16 kts | 139° |
| 2026-05-07 22:20 | 37.36112 | -121.93000 | 56 ft | 19 kts | 139° |
| 2026-05-07 22:20 | 37.36014 | -121.92891 | 55 ft | 19 kts | 139° |
| 2026-05-07 22:21 | 37.35916 | -121.92782 | 54 ft | 19 kts | 139° |
| 2026-05-07 22:21 | 37.35816 | -121.92673 | 54 ft | 19 kts | 139° |
| 2026-05-07 22:21 | 37.35740 | -121.92588 | 54 ft | 11 kts | 139° |
| 2026-05-07 22:21 | 37.35674 | -121.92590 | 55 ft | 10 kts | 227° |
| 2026-05-07 22:22 | 37.35626 | -121.92661 | 56 ft | 11 kts | 235° |
| 2026-05-07 22:22 | 37.35648 | -121.92729 | 56 ft | 11 kts | 320° |
| 2026-05-07 22:22 | 37.35706 | -121.92793 | 56 ft | 11 kts | 320° |
| 2026-05-07 22:22 | 37.35762 | -121.92853 | 58 ft | 9 kts | 319° |
| 2026-05-07 22:23 | 37.35760 | -121.92908 | 55 ft | 5 kts | 247° |
| 2026-05-07 22:23 | 37.35779 | -121.92940 | 54 ft | 6 kts | 318° |
| 2026-05-07 22:23 | 37.35789 | -121.92967 | 57 ft | 3 kts | 252° |
| 2026-05-07 22:23 | 37.35781 | -121.92981 | 58 ft | 0 kts | 229° |